Happy Valentine's Day! 

Flight Track Log - Related Links

Times and Time Zones

All times are in EDT time to prevent confusion due to time zone crossing. See the UAL555 flight status page for this flight to view local times or setup timezone preferences in your user account.


Time Position Orientation Groundspeed Altitude Reporting Facility
EDT Latitude Longitude Course Direction KTS MPH feet Rate Location/Type
Thu 10:41:21 PM 41.9690 -87.8970 270° West 125 144  Level FlightAware ADS-B
Thu 10:42:05 PM 41.9680 -87.9430 268° West 161 185 1,900 2,294 Climbing FlightAware ADS-B
Thu 10:42:29 PM 41.9650 -87.9670 260° West 185 213 2,600 2,143 Climbing FlightAware ADS-B
Thu 10:43:01 PM 41.9600 -88.0090 261° West 219 252 3,900 2,280 Climbing FlightAware ADS-B
Thu 10:43:19 PM 41.9570 -88.0340 261° West 243 280 4,500 1,091 Climbing FlightAware ADS-B
Thu 10:43:45 PM 41.9530 -88.0750 263° West 253 291 4,700 250 Climbing FlightAware ADS-B
Thu 10:44:07 PM 41.9500 -88.1080 263° West 256 295 4,700 1,467 Level FlightAware ADS-B
Thu 10:44:30 PM 41.9480 -88.1470 266° West 257 296 5,800 3,231 Climbing FlightAware ADS-B
Thu 10:44:59 PM 41.9540 -88.1910 280° West 260 299 7,500 3,321 Climbing FlightAware ADS-B
Thu 10:45:26 PM 41.9610 -88.2350 282° West 271 312 8,900 3,071 Climbing FlightAware ADS-B
Thu 10:46:23 PM 41.9760 -88.3330 282° West 294 338 11,800 2,862 Climbing FlightAware ADS-B
Thu 10:47:15 PM 41.9910 -88.4310 282° West 319 367 14,100 2,769 Climbing FlightAware ADS-B
Thu 10:47:54 PM 42.0030 -88.5060 282° West 330 380 16,000 2,921 Climbing FlightAware ADS-B
Thu 10:48:31 PM 42.0140 -88.5820 281° West 338 389 17,800 2,838 Climbing FlightAware ADS-B
Thu 10:49:08 PM 42.0250 -88.6600 281° West 345 397 19,500 2,602 Climbing FlightAware ADS-B
Thu 10:49:54 PM 42.0390 -88.7570 281° West 355 409 21,400 1,792 Climbing FlightAware ADS-B
Thu 10:50:25 PM 42.0450 -88.8300 276° West 386 444 21,800 1,348 Climbing FlightAware ADS-B
Thu 10:51:23 PM 42.0370 -88.9700 266° West 411 473 23,400 1,841 Climbing FlightAware ADS-B
Thu 10:51:53 PM 42.0320 -89.0480 265° West 415 478 24,500 2,087 Climbing FlightAware ADS-B
Thu 10:52:32 PM 42.0270 -89.1460 266° West 420 483 25,800 1,865 Climbing FlightAware ADS-B
Thu 10:53:07 PM 42.0210 -89.2390 265° West 427 491 26,800 1,714 Climbing FlightAware ADS-B
Thu 10:54:03 PM 42.0120 -89.3840 265° West 436 502 28,400 1,688 Climbing FlightAware ADS-B
Thu 10:54:43 PM 42.0050 -89.4970 265° West 442 509 29,500 1,435 Climbing FlightAware ADS-B
Thu 10:55:35 PM 41.9960 -89.6430 265° West 454 522 30,600 1,286 Climbing FlightAware ADS-B
Thu 10:56:07 PM 41.9900 -89.7340 265° West 457 526 31,300 1,737 Climbing FlightAware ADS-B
Thu 10:56:51 PM 41.9820 -89.8600 265° West 448 516 32,800 1,852 Climbing FlightAware ADS-B
Thu 10:57:28 PM 41.9750 -89.9640 265° West 446 513 33,800 1,558 Climbing FlightAware ADS-B
Thu 10:58:35 PM 41.9620 -90.1480 265° West 440 506 35,500 1,451 Climbing FlightAware ADS-B
Thu 10:58:59 PM 41.9580 -90.2110 265° West 437 503 36,000 1,125 Climbing FlightAware ADS-B
Thu 10:59:39 PM 41.9500 -90.3180 264° West 436 502 36,700 1,099 Climbing FlightAware ADS-B
Thu 11:00:10 PM 41.9450 -90.4000 265° West 434 499 37,300 886 Climbing FlightAware ADS-B
Thu 11:01:07 PM 41.9330 -90.5560 264° West 437 503 38,000 378 Climbing FlightAware ADS-B
Thu 11:02:01 PM 41.9230 -90.6990 265° West 436 502 38,000  Level FlightAware ADS-B
Thu 11:02:30 PM 41.9170 -90.7780 264° West 437 503 38,000  Level FlightAware ADS-B
Thu 11:03:26 PM 41.9060 -90.9290 264° West 439 505 38,000  Level FlightAware ADS-B
Thu 11:03:59 PM 41.8990 -91.0150 264° West 439 505 38,000  Level FlightAware ADS-B
Thu 11:04:23 PM 41.8940 -91.0810 264° West 440 506 38,000  Level FlightAware ADS-B
Thu 11:05:06 PM 41.8850 -91.1930 264° West 441 507 38,000  Level FlightAware ADS-B
Thu 11:05:38 PM 41.8780 -91.2830 264° West 440 506 38,000  Level FlightAware ADS-B
Thu 11:06:13 PM 41.8710 -91.3770 264° West 439 505 38,000  Level FlightAware ADS-B
Thu 11:07:06 PM 41.8590 -91.5220 264° West 434 499 38,000  Level FlightAware ADS-B
Thu 11:07:55 PM 41.8480 -91.6550 264° West 432 497 38,000  Level FlightAware ADS-B
Thu 11:09:03 PM 41.8380 -91.8320 266° West 406 467 38,000  Level FlightAware ADS-B
Thu 11:09:53 PM 41.8360 -91.9510 269° West 385 443 38,000  Level FlightAware ADS-B
Thu 11:10:25 PM 41.8340 -92.0270 268° West 386 444 38,000  Level FlightAware ADS-B
Thu 11:10:57 PM 41.8310 -92.1070 267° West 392 451 38,000  Level FlightAware ADS-B
Thu 11:11:33 PM 41.8290 -92.1900 268° West 401 461 38,000  Level FlightAware ADS-B
Thu 11:12:03 PM 41.8256 -92.2696 267° West 406 467 38,000  Level FlightAware ADS-B
Thu 11:12:43 PM 41.8220 -92.3680 267° West 407 468 38,000  Level FlightAware ADS-B
Thu 11:13:04 PM 41.8202 -92.4229 268° West 407 468 38,000  Level FlightAware ADS-B
Thu 11:13:53 PM 41.8160 -92.5470 267° West 411 473 38,000  Level FlightAware ADS-B
Thu 11:15:01 PM 41.8100 -92.7160 267° West 416 479 38,000  Level FlightAware ADS-B
Thu 11:15:34 PM 41.8060 -92.8070 267° West 418 481 38,000  Level FlightAware ADS-B
Thu 11:16:10 PM 41.8030 -92.8940 267° West 419 482 38,000  Level FlightAware ADS-B
Thu 11:17:11 PM 41.7970 -93.0520 267° West 420 483 38,000  Level FlightAware ADS-B
Thu 11:17:57 PM 41.7916 -93.1756 267° West 422 486 38,000  Level FlightAware ADS-B
Thu 11:19:07 PM 41.7840 -93.3590 267° West 420 483 38,000  Level FlightAware ADS-B
Thu 11:19:43 PM 41.7800 -93.4500 267° West 419 482 38,000  Level FlightAware ADS-B
Thu 11:20:15 PM 41.7760 -93.5350 266° West 419 482 38,000  Level FlightAware ADS-B
Thu 11:21:15 PM 41.7690 -93.6900 267° West 419 482 38,000  Level FlightAware ADS-B
Thu 11:22:02 PM 41.7630 -93.8120 266° West 421 484 38,000  Level FlightAware ADS-B
Thu 11:22:57 PM 41.7570 -93.9550 267° West 424 488 38,000  Level FlightAware ADS-B
Thu 11:23:29 PM 41.7520 -94.0400 266° West 425 489 38,000  Level FlightAware ADS-B
Thu 11:23:57 PM 41.7490 -94.1100 267° West 427 491 38,000  Level FlightAware ADS-B
Thu 11:24:28 PM 41.7450 -94.1910 266° West 427 491 38,000  Level FlightAware ADS-B
Thu 11:25:20 PM 41.7380 -94.3310 266° West 428 493 38,000  Level FlightAware ADS-B
Thu 11:25:45 PM 41.7345 -94.3932 266° West 430 495 38,000  Level FlightAware ADS-B
Thu 11:26:52 PM 41.7250 -94.5710 266° West 429 494 38,000  Level FlightAware ADS-B
Thu 11:27:49 PM 41.7170 -94.7260 266° West 429 494 38,000  Level FlightAware ADS-B
Thu 11:28:46 PM 41.7080 -94.8750 265° West 430 495 38,000  Level FlightAware ADS-B
Thu 11:29:18 PM 41.7040 -94.9610 266° West 431 496 38,000  Level FlightAware ADS-B
Thu 11:29:59 PM 41.6970 -95.0700 265° West 431 496 38,000  Level FlightAware ADS-B
Thu 11:30:36 PM 41.6910 -95.1680 265° West 432 497 38,000  Level FlightAware ADS-B
Thu 11:31:07 PM 41.6870 -95.2500 266° West 432 497 38,000  Level FlightAware ADS-B
Thu 11:31:44 PM 41.6810 -95.3450 265° West 433 498 38,000  Level FlightAware ADS-B
Thu 11:32:18 PM 41.6750 -95.4370 265° West 433 498 38,000  Level FlightAware ADS-B
Thu 11:32:50 PM 41.6700 -95.5250 266° West 434 499 38,000  Level FlightAware ADS-B
Thu 11:33:23 PM 41.6650 -95.6100 266° West 435 501 38,000  Level FlightAware ADS-B
Thu 11:34:21 PM 41.6540 -95.7670 265° West 436 502 38,000  Level FlightAware ADS-B
Thu 11:35:11 PM 41.6459 -95.9012 265° West 437 503 38,000  Level FlightAware ADS-B
Thu 11:36:03 PM 41.6360 -96.0430 265° West 437 503 38,000  Level FlightAware ADS-B
Thu 11:36:33 PM 41.6313 -96.1205 265° West 439 505 38,000  Level FlightAware ADS-B
Thu 11:37:32 PM 41.6200 -96.2820 265° West 437 503 38,000  Level FlightAware ADS-B
Thu 11:37:58 PM 41.6156 -96.3499 265° West 439 505 38,000  Level FlightAware ADS-B
Thu 11:39:28 PM 41.5984 -96.5936 265° West 441 507 38,000  Level FlightAware ADS-B
Thu 11:40:01 PM 41.5920 -96.6800 264° West 441 507 38,000  Level FlightAware ADS-B
Thu 11:40:30 PM 41.5860 -96.7620 264° West 442 509 38,000  Level FlightAware ADS-B
Thu 11:41:03 PM 41.5800 -96.8510 265° West 442 509 38,000  Level FlightAware ADS-B
Thu 11:41:31 PM 41.5742 -96.9252 264° West 443 510 38,000  Level FlightAware ADS-B
Thu 11:42:35 PM 41.5610 -97.1000 264° West 442 509 38,000  Level FlightAware ADS-B
Thu 11:43:15 PM 41.5530 -97.2050 264° West 442 509 38,000  Level FlightAware ADS-B
Thu 11:43:45 PM 41.5463 -97.2915 264° West 442 509 38,000  Level FlightAware ADS-B
Thu 11:44:32 PM 41.5360 -97.4170 264° West 442 509 38,000  Level FlightAware ADS-B
Thu 11:45:28 PM 41.5245 -97.5675 264° West 443 510 38,000  Level FlightAware ADS-B
Thu 11:46:16 PM 41.5140 -97.6980 264° West 441 507 38,000  Level FlightAware ADS-B
Thu 11:47:18 PM 41.5002 -97.8651 264° West 444 511 38,000  Level FlightAware ADS-B
Thu 11:47:49 PM 41.4931 -97.9511 264° West 445 512 38,000  Level FlightAware ADS-B
Thu 11:48:35 PM 41.4830 -98.0640 263° West 444 511 38,000  Level FlightAware ADS-B
Thu 11:49:28 PM 41.4702 -98.2206 264° West 445 512 38,000  Level FlightAware ADS-B
Thu 11:50:35 PM 41.4560 -98.3840 263° West 444 511 38,000  Level FlightAware ADS-B
Thu 11:51:19 PM 41.4590 -98.3520 83° East 444 511 38,000  Level FlightAware ADS-B
Thu 11:52:07 PM 41.4480 -98.4630 263° West 444 511 38,000  Level FlightAware ADS-B
Thu 11:52:48 PM 41.4329 -98.6451 264° West 447 514 38,000  Level FlightAware ADS-B
Thu 11:53:55 PM 41.4172 -98.8183 263° West 447 514 38,000  Level FlightAware ADS-B
Thu 11:54:56 PM 41.4120 -98.8540 259° West 444 511 38,000  Level FlightAware ADS-B
Thu 11:55:17 PM 41.3846 -99.1691 263° West 448 516 38,000  Level FlightAware ADS-B
Thu 11:56:09 PM 41.3970 -99.0220 84° East 444 511 38,000  Level FlightAware ADS-B
Thu 11:57:06 PM 41.3615 -99.4113 263° West 450 518 38,000  Level FlightAware ADS-B
Thu 11:58:10 PM 41.3710 -99.3020 83° East 444 511 38,000  Level FlightAware ADS-B
Thu 11:58:56 PM 41.3610 -99.4080 263° West 444 511 38,000  Level FlightAware ADS-B
Thu 11:59:28 PM 41.3290 -99.7426 263° West 454 522 38,000  Level FlightAware ADS-B
Fri 12:00:44 AM 41.3380 -99.6570 82° East 444 511 38,000  Level FlightAware ADS-B
Fri 12:05:10 AM 41.2190 -100.7961 262° West 457 526 38,000  Level FlightAware ADS-B
Fri 12:05:40 AM 41.2093 -100.8845 262° West 456 525 38,000  Level FlightAware ADS-B
Fri 12:06:21 AM 41.1968 -100.9973 262° West 455 524 38,000  Level FlightAware ADS-B
Fri 12:07:00 AM 41.1846 -101.1066 262° West 455 524 38,000  Level FlightAware ADS-B
Fri 12:07:31 AM 41.1754 -101.1886 262° West 454 522 38,000  Level FlightAware ADS-B
Fri 12:08:10 AM 41.1628 -101.2996 261° West 454 522 38,000  Level FlightAware ADS-B
Fri 12:08:51 AM 41.1514 -101.3994 261° West 453 521 38,000  Level FlightAware ADS-B
Fri 12:10:09 AM 41.1254 -101.6238 261° West 452 520 38,000  Level FlightAware ADS-B
Fri 12:10:52 AM 41.1115 -101.7433 261° West 452 520 38,000  Level FlightAware ADS-B
Fri 12:11:35 AM 41.0979 -101.8581 261° West 452 520 38,000  Level FlightAware ADS-B
Fri 12:12:13 AM 41.0856 -101.9610 261° West 452 520 38,000  Level FlightAware ADS-B
Fri 12:12:54 AM 41.0720 -102.0742 261° West 452 520 38,000  Level FlightAware ADS-B
Fri 12:13:25 AM 41.0630 -102.1479 261° West 453 521 38,000  Level FlightAware ADS-B
Fri 12:13:55 AM 41.0517 -102.2410 261° West 453 521 38,000  Level FlightAware ADS-B
Fri 12:14:25 AM 41.0416 -102.3232 261° West 454 522 38,000  Level FlightAware ADS-B
Fri 12:14:55 AM 41.0318 -102.4029 261° West 455 524 38,000  Level FlightAware ADS-B
Fri 12:15:34 AM 41.0182 -102.5126 261° West 456 525 38,000  Level FlightAware ADS-B
Fri 12:16:27 AM 41.0000 -102.6580 261° West 457 526 38,000  Level FlightAware ADS-B
Fri 12:16:59 AM 40.9890 -102.7470 261° West 458 527 38,000  Level FlightAware ADS-B
Fri 12:17:17 AM 40.9824 -102.7962 260° West 459 528 38,000  Level FlightAware ADS-B
Fri 12:17:57 AM 40.9706 -102.8886 260° West 460 529 38,000  Level FlightAware ADS-B
Fri 12:18:38 AM 40.9539 -103.0186 260° West 460 529 38,000  Level FlightAware ADS-B
Fri 12:19:38 AM 40.9330 -103.1795 260° West 460 529 38,000  Level FlightAware ADS-B
Fri 12:20:17 AM 40.9176 -103.2950 260° West 460 529 38,000  Level FlightAware ADS-B
Fri 12:20:48 AM 40.9066 -103.3790 260° West 461 531 38,000  Level FlightAware ADS-B
Fri 12:21:27 AM 40.8921 -103.4875 260° West 460 529 38,000  Level FlightAware ADS-B
Fri 12:21:59 AM 40.8826 -103.5585 260° West 460 529 38,000  Level FlightAware ADS-B
Fri 12:22:38 AM 40.8676 -103.6701 260° West 461 531 38,000  Level FlightAware ADS-B
Fri 12:23:10 AM 40.8544 -103.7672 260° West 462 532 38,000  Level FlightAware ADS-B
Fri 12:23:40 AM 40.8429 -103.8514 260° West 462 532 38,000  Level FlightAware ADS-B
Fri 12:24:10 AM 40.8326 -103.9263 260° West 464 534 38,000  Level FlightAware ADS-B
Fri 12:24:49 AM 40.8160 -104.0466 260° West 465 535 38,000  Level FlightAware ADS-B
Fri 12:25:20 AM 40.8043 -104.1303 260° West 465 535 38,000  Level FlightAware ADS-B
Fri 12:25:50 AM 40.7942 -104.2024 260° West 466 536 38,000  Level FlightAware ADS-B
Fri 12:26:20 AM 40.7817 -104.2912 259° West 466 536 38,000  Level FlightAware ADS-B
Fri 12:26:52 AM 40.7676 -104.3906 259° West 466 536 38,000  Level FlightAware ADS-B
Fri 12:27:22 AM 40.7566 -104.4678 259° West 467 537 38,000  Level FlightAware ADS-B
Fri 12:27:53 AM 40.7451 -104.5486 259° West 468 539 38,000  Level FlightAware ADS-B
Fri 12:28:23 AM 40.7323 -104.6379 259° West 467 537 38,000  Level FlightAware ADS-B
Fri 12:28:53 AM 40.7194 -104.7264 259° West 467 537 38,000  Level FlightAware ADS-B
Fri 12:29:23 AM 40.7070 -104.8112 259° West 467 537 38,000  Level FlightAware ADS-B
Fri 12:29:54 AM 40.6945 -104.8956 259° West 468 539 38,000  Level FlightAware ADS-B
Fri 12:30:24 AM 40.6831 -104.9736 259° West 468 539 38,000  Level FlightAware ADS-B
Fri 12:30:54 AM 40.6696 -105.0650 259° West 468 539 38,000  Level FlightAware ADS-B
Fri 12:31:25 AM 40.6574 -105.1470 259° West 469 540 38,000  Level FlightAware ADS-B
Fri 12:31:55 AM 40.6444 -105.2347 259° West 469 540 38,000  Level FlightAware ADS-B
Fri 12:32:26 AM 40.6316 -105.3196 259° West 470 541 38,000  Level FlightAware ADS-B
Fri 12:32:56 AM 40.6192 -105.4022 259° West 470 541 38,000  Level FlightAware ADS-B
Fri 12:33:35 AM 40.6032 -105.5069 259° West 470 541 38,000  Level FlightAware ADS-B
Fri 12:34:06 AM 40.5913 -105.5844 259° West 471 542 38,000  Level FlightAware ADS-B
Fri 12:34:36 AM 40.5767 -105.6800 259° West 471 542 38,000  Level FlightAware ADS-B
Fri 12:35:11 AM 40.5612 -105.7794 258° West 472 543 38,000  Level FlightAware ADS-B
Fri 12:35:46 AM 40.5459 -105.8782 258° West 473 544 38,000  Level FlightAware ADS-B
Fri 12:36:34 AM 40.5242 -106.0173 258° West 475 547 38,000  Level FlightAware ADS-B
Fri 12:37:06 AM 40.5120 -106.0948 258° West 475 547 38,000  Level FlightAware ADS-B
Fri 12:37:37 AM 40.4968 -106.1902 258° West 474 545 38,000  Level FlightAware ADS-B
Fri 12:38:13 AM 40.4801 -106.2943 258° West 474 545 38,000  Level FlightAware ADS-B
Fri 12:38:48 AM 40.4719 -106.3454 258° West 474 545 38,000  Level FlightAware ADS-B
Fri 12:39:20 AM 40.4498 -106.4836 258° West 473 544 38,000  Level FlightAware ADS-B
Fri 12:39:59 AM 40.4326 -106.5897 258° West 474 545 38,000  Level FlightAware ADS-B
Fri 12:40:30 AM 40.4183 -106.6774 258° West 474 545 38,000  Level FlightAware ADS-B
Fri 12:41:03 AM 40.4030 -106.7707 258° West 474 545 38,000  Level FlightAware ADS-B
Fri 12:41:34 AM 40.3886 -106.8579 258° West 473 544 38,000  Level FlightAware ADS-B
Fri 12:42:13 AM 40.3708 -106.9650 258° West 471 542 38,000  Level FlightAware ADS-B
Fri 12:42:47 AM 40.3544 -107.0637 258° West 471 542 38,000  Level FlightAware ADS-B
Fri 12:43:17 AM 40.3416 -107.1403 258° West 470 541 38,000  Level FlightAware ADS-B
Fri 12:43:49 AM 40.3262 -107.2315 258° West 469 540 38,000  Level FlightAware ADS-B
Fri 12:44:24 AM 40.3098 -107.3291 258° West 469 540 38,000  Level FlightAware ADS-B
Fri 12:44:58 AM 40.2933 -107.4256 257° West 468 539 38,000  Level FlightAware ADS-B
Fri 12:45:29 AM 40.2800 -107.5032 257° West 468 539 38,000  Level FlightAware ADS-B
Fri 12:46:06 AM 40.2632 -107.6013 257° West 469 540 38,000  Level FlightAware ADS-B (KGUC)
Fri 12:46:39 AM 40.2461 -107.7001 257° West 469 540 38,000  Level FlightAware ADS-B
Fri 12:47:13 AM 40.2300 -107.7927 257° West 469 540 38,000  Level FlightAware ADS-B
Fri 12:47:43 AM 40.2150 -107.8789 257° West 468 539 38,000  Level FlightAware ADS-B
Fri 12:48:13 AM 40.2004 -107.9622 257° West 468 539 38,000  Level FlightAware ADS-B
Fri 12:48:43 AM 40.1858 -108.0457 257° West 467 537 38,000  Level FlightAware ADS-B
Fri 12:49:14 AM 40.1710 -108.1290 257° West 467 537 38,000  Level FlightAware ADS-B
Fri 12:49:44 AM 40.1564 -108.2112 257° West 466 536 38,000  Level FlightAware ADS-B
Fri 12:50:14 AM 40.1413 -108.2955 257° West 467 537 38,000  Level FlightAware ADS-B
Fri 12:50:44 AM 40.1267 -108.3771 257° West 467 537 38,000  Level FlightAware ADS-B
Fri 12:51:14 AM 40.1127 -108.4549 257° West 466 536 38,000  Level FlightAware ADS-B
Fri 12:51:44 AM 40.0974 -108.5396 257° West 467 537 38,000  Level FlightAware ADS-B
Fri 12:52:14 AM 40.0828 -108.6194 257° West 467 537 38,000  Level FlightAware ADS-B
Fri 12:52:45 AM 40.0685 -108.6979 257° West 468 539 38,000  Level FlightAware ADS-B
Fri 12:53:15 AM 40.0519 -108.7885 257° West 468 539 38,000  Level FlightAware ADS-B
Fri 12:53:51 AM 40.0337 -108.8879 257° West 468 539 38,000  Level FlightAware ADS-B (KGUC)
Fri 12:54:21 AM 40.0195 -108.9646 256° West 468 539 38,000  Level FlightAware ADS-B (KGUC)
Fri 12:54:55 AM 40.0013 -109.0624 256° West 469 540 38,000  Level FlightAware ADS-B
Fri 12:55:25 AM 39.9859 -109.1447 256° West 470 541 38,000  Level FlightAware ADS-B
Fri 12:55:55 AM 39.9709 -109.2251 256° West 470 541 38,000  Level FlightAware ADS-B
Fri 12:56:25 AM 39.9548 -109.3106 256° West 471 542 38,000  Level FlightAware ADS-B
Fri 12:56:55 AM 39.9396 -109.3911 256° West 472 543 38,000  Level FlightAware ADS-B
Fri 12:57:25 AM 39.9245 -109.4706 256° West 472 543 38,000  Level FlightAware ADS-B
Fri 12:57:55 AM 39.9081 -109.5565 256° West 472 543 38,000  Level FlightAware ADS-B
Fri 12:58:25 AM 39.8920 -109.6407 256° West 473 544 38,000  Level FlightAware ADS-B
Fri 12:58:55 AM 39.8762 -109.7226 256° West 473 544 38,000  Level FlightAware ADS-B
Fri 12:59:25 AM 39.8604 -109.8049 256° West 474 545 38,000  Level FlightAware ADS-B
Fri 12:59:55 AM 39.8451 -109.8839 256° West 476 548 38,000  Level FlightAware ADS-B
Fri 01:00:25 AM 39.8280 -109.9716 256° West 476 548 38,000  Level FlightAware ADS-B
Fri 01:01:00 AM 39.8094 -110.0666 256° West 477 549 38,000  Level FlightAware ADS-B (KGUC)
Fri 01:01:31 AM 39.7929 -110.1511 256° West 477 549 38,000  Level FlightAware ADS-B (KGUC)
Fri 01:02:05 AM 39.7737 -110.2480 256° West 477 549 38,000  Level FlightAware ADS-B
Fri 01:02:35 AM 39.7570 -110.3316 255° West 477 549 38,000  Level FlightAware ADS-B
Fri 01:03:15 AM 39.7352 -110.4420 256° West 477 549 38,000  Level FlightAware ADS-B
Fri 01:03:45 AM 39.7186 -110.5253 255° West 477 549 38,000  Level FlightAware ADS-B
Fri 01:04:15 AM 39.7019 -110.6074 255° West 478 550 38,000  Level FlightAware ADS-B
Fri 01:04:45 AM 39.6862 -110.6857 255° West 478 550 38,000  Level FlightAware ADS-B
Fri 01:05:15 AM 39.6689 -110.7710 255° West 479 551 38,000  Level FlightAware ADS-B
Fri 01:05:45 AM 39.6516 -110.8566 255° West 479 551 38,000  Level FlightAware ADS-B
Fri 01:06:15 AM 39.6340 -110.9430 255° West 479 551 38,000  Level FlightAware ADS-B
Fri 01:06:22 AM 39.6303 -110.9604 255° West 479 551 38,000  Level FlightAware ADS-B
Fri 01:06:54 AM 39.6120 -111.0490 255° West 479 551 38,000  Level FlightAware ADS-B
Fri 01:07:25 AM 39.5944 -111.1350 255° West 479 551 38,000  Level FlightAware ADS-B
Fri 01:07:55 AM 39.5771 -111.2190 255° West 479 551 38,000  Level FlightAware ADS-B
Fri 01:08:03 AM 39.5730 -111.2386 255° West 478 550 38,000  Level FlightAware ADS-B
Fri 01:08:25 AM 39.5597 -111.3020 255° West 479 551 38,000  Level FlightAware ADS-B
Fri 01:08:33 AM 39.5555 -111.3226 255° West 478 550 38,000  Level FlightAware ADS-B
Fri 01:08:56 AM 39.5421 -111.3870 255° West 479 551 38,000  Level FlightAware ADS-B
Fri 01:09:05 AM 39.5372 -111.4103 255° West 479 551 38,000  Level FlightAware ADS-B
Fri 01:09:27 AM 39.5244 -111.4710 255° West 479 551 38,000  Level FlightAware ADS-B
Fri 01:09:35 AM 39.5202 -111.4912 255° West 480 552 38,000  Level FlightAware ADS-B
Fri 01:09:59 AM 39.5060 -111.5590 255° West 480 552 38,000  Level FlightAware ADS-B
Fri 01:10:40 AM 39.4819 -111.6740 255° West 480 552 38,000  Level FlightAware ADS-B
Fri 01:10:52 AM 39.4748 -111.7070 254° West 480 552 38,000  Level FlightAware ADS-B
Fri 01:11:10 AM 39.4642 -111.7570 255° West 480 552 38,000  Level FlightAware ADS-B
Fri 01:11:31 AM 39.4519 -111.8146 255° West 480 552 38,000  Level FlightAware ADS-B
Fri 01:11:48 AM 39.4418 -111.8620 255° West 480 552 38,000  Level FlightAware ADS-B
Fri 01:12:13 AM 39.4277 -111.9277 254° West 480 552 38,000  Level FlightAware ADS-B
Fri 01:12:19 AM 39.4238 -111.9460 255° West 480 552 38,000  Level FlightAware ADS-B
Fri 01:12:50 AM 39.4054 -112.0310 254° West 480 552 38,000  Level FlightAware ADS-B
Fri 01:12:52 AM 39.4039 -112.0389 256° West 480 552 38,000  Level FlightAware ADS-B
Fri 01:13:23 AM 39.3854 -112.1240 254° West 480 552 38,000  Level FlightAware ADS-B
Fri 01:13:43 AM 39.3736 -112.1786 254° West 481 554 38,000  Level FlightAware ADS-B
Fri 01:13:53 AM 39.3674 -112.2070 254° West 481 554 38,000  Level FlightAware ADS-B
Fri 01:14:23 AM 39.3497 -112.2886 254° West 481 554 38,000  Level FlightAware ADS-B
Fri 01:14:24 AM 39.3490 -112.2920 255° West 481 554 38,000  Level FlightAware ADS-B
Fri 01:14:54 AM 39.3309 -112.3750 254° West 480 552 38,000  Level FlightAware ADS-B
Fri 01:15:03 AM 39.3256 -112.3988 254° West 480 552 38,000  Level FlightAware ADS-B
Fri 01:15:24 AM 39.3127 -112.4580 254° West 480 552 38,000  Level FlightAware ADS-B
Fri 01:15:43 AM 39.3009 -112.5080 253° West 480 552 38,000  Level FlightAware ADS-B
Fri 01:15:57 AM 39.2917 -112.5460 253° West 480 552 38,000  Level FlightAware ADS-B
Fri 01:16:13 AM 39.2823 -112.5899 254° West 480 552 38,000  Level FlightAware ADS-B
Fri 01:16:27 AM 39.2738 -112.6300 255° West 479 551 38,000  Level FlightAware ADS-B
Fri 01:16:53 AM 39.2584 -112.7004 254° West 479 551 38,000  Level FlightAware ADS-B
Fri 01:17:01 AM 39.2537 -112.7220 254° West 479 551 38,000  Level FlightAware ADS-B
Fri 01:17:31 AM 39.2354 -112.8040 254° West 479 551 38,000  Level FlightAware ADS-B
Fri 01:17:43 AM 39.2281 -112.8368 254° West 479 551 38,000  Level FlightAware ADS-B
Fri 01:18:01 AM 39.2167 -112.8860 253° West 480 552 38,000  Level FlightAware ADS-B
Fri 01:18:23 AM 39.2029 -112.9467 254° West 481 554 38,000  Level FlightAware ADS-B
Fri 01:18:34 AM 39.1961 -112.9760 253° West 481 554 38,000  Level FlightAware ADS-B
Fri 01:19:10 AM 39.1734 -113.0750 254° West 481 554 38,000  Level FlightAware ADS-B
Fri 01:20:08 AM 39.1380 -113.2290 254° West 479 551 38,000  Level FlightAware ADS-B
Fri 01:20:43 AM 39.1142 -113.3300 253° West 482 555 38,000  Level FlightAware ADS-B
Fri 01:21:33 AM 39.0833 -113.4626 253° West 482 555 38,000  Level FlightAware ADS-B
Fri 01:22:32 AM 39.0440 -113.6306 253° West 483 556 38,000  Level FlightAware ADS-B
Fri 01:23:03 AM 39.0253 -113.7098 253° West 483 556 38,000  Level FlightAware ADS-B
Fri 01:23:33 AM 39.0053 -113.7943 253° West 482 555 38,000  Level FlightAware ADS-B
Fri 01:24:04 AM 38.9859 -113.8760 253° West 482 555 38,000  Level FlightAware ADS-B
Fri 01:24:34 AM 38.9651 -113.9635 253° West 482 555 38,000  Level FlightAware ADS-B
Fri 01:25:13 AM 38.9403 -114.0673 253° West 482 555 38,000  Level FlightAware ADS-B
Fri 01:25:44 AM 38.9192 -114.1550 253° West 483 556 38,000  Level FlightAware ADS-B
Fri 01:26:14 AM 38.9000 -114.2345 253° West 484 557 38,000  Level FlightAware ADS-B
Fri 01:26:44 AM 38.8799 -114.3179 253° West 484 557 38,000  Level FlightAware ADS-B
Fri 01:27:45 AM 38.8880 -114.3360 300° West 479 551 38,000  Level FlightAware ADS-B
Fri 01:28:46 AM 38.8560 -114.4780 254° West 479 551 38,000  Level FlightAware ADS-B
Fri 01:29:34 AM 38.8310 -114.5890 254° West 479 551 38,000  Level FlightAware ADS-B
Fri 01:30:11 AM 38.8120 -114.6750 254° West 479 551 38,000  Level FlightAware ADS-B
Fri 01:30:35 AM 38.8000 -114.7310 255° West 479 551 38,000  Level FlightAware ADS-B
Fri 01:31:35 AM 38.7690 -114.8700 254° West 479 551 38,000  Level FlightAware ADS-B
Fri 01:31:47 AM 38.7620 -114.8980 252° West 479 551 38,000  Level FlightAware ADS-B
Fri 01:32:48 AM 38.6369 -115.3006 252° West 481 554 38,000  Level Salt Lake Center
Fri 01:33:48 AM 38.5997 -115.4456 252° West 479 551 38,000  Level Salt Lake Center
Fri 01:39:16 AM 38.3710 -116.3350 252° West 473 544 38,000  Level FlightAware ADS-B
Fri 01:39:56 AM 38.3430 -116.4400 251° West 474 545 38,000  Level FlightAware ADS-B
Fri 01:40:26 AM 38.3210 -116.5200 251° West 474 545 38,000  Level FlightAware ADS-B
Fri 01:41:16 AM 38.2860 -116.6520 251° West 471 542 38,000  Level FlightAware ADS-B
Fri 01:41:46 AM 38.2650 -116.7320 252° West 469 540 38,000  Level FlightAware ADS-B
Fri 01:42:16 AM 38.2450 -116.8080 251° West 465 535 38,000  Level FlightAware ADS-B
Fri 01:42:56 AM 38.2180 -116.9070 251° West 446 513 38,000  Level FlightAware ADS-B
Fri 01:43:23 AM 38.2000 -116.9720 251° West 436 502 38,000  Level FlightAware ADS-B
Fri 01:44:07 AM 38.1740 -117.0710 252° West 432 497 38,000  Level FlightAware ADS-B
Fri 01:44:47 AM 38.1460 -117.1740 251° West 433 498 38,000  Level FlightAware ADS-B
Fri 01:45:27 AM 38.1180 -117.2760 251° West 434 499 38,000  Level FlightAware ADS-B
Fri 01:46:23 AM 38.0870 -117.4110 254° West 435 501 38,000  Level FlightAware ADS-B
Fri 01:46:58 AM 38.0680 -117.4970 254° West 433 498 38,000  Level FlightAware ADS-B
Fri 01:47:27 AM 38.0530 -117.5610 253° West 432 497 38,000  Level FlightAware ADS-B
Fri 01:48:12 AM 38.0250 -117.6780 253° West 431 496 38,000  Level FlightAware ADS-B
Fri 01:48:38 AM 38.0130 -117.7320 254° West 431 496 38,000  Level FlightAware ADS-B
Fri 01:49:26 AM 37.9910 -117.8310 254° West 431 496 38,000  Level FlightAware ADS-B
Fri 01:50:03 AM 37.9730 -117.9070 253° West 431 496 38,000  Level FlightAware ADS-B
Fri 01:51:15 AM 37.9400 -118.0560 254° West 431 496 38,000  Level FlightAware ADS-B
Fri 01:51:51 AM 37.9230 -118.1300 254° West 431 496 38,000  Level FlightAware ADS-B
Fri 01:52:27 AM 37.9060 -118.2050 254° West 431 496 38,000  Level FlightAware ADS-B
Fri 01:53:03 AM 37.8890 -118.2790 254° West 431 496 38,000  Level FlightAware ADS-B
Fri 01:53:51 AM 37.8670 -118.3780 254° West 431 496 38,000  Level FlightAware ADS-B
Fri 01:54:48 AM 37.9060 -118.6750 280° West 435 501 38,000  Level FlightAware ADS-B
Fri 01:55:24 AM 37.8960 -118.7640 262° West 436 502 38,000  Level FlightAware ADS-B
Fri 01:55:54 AM 37.8870 -118.8420 262° West 436 502 38,000  Level FlightAware ADS-B
Fri 01:56:41 AM 37.8971 -118.7522 82° East 438 504 38,000  Level FlightAware ADS-B
Fri 01:57:16 AM 37.8630 -119.0490 262° West 438 504 38,000  Level FlightAware ADS-B
Fri 01:57:49 AM 37.8537 -119.1322 262° West 440 506 38,000  Level FlightAware ADS-B
Fri 01:58:21 AM 37.8443 -119.2132 262° West 439 505 38,000 -486 Level FlightAware ADS-B
Fri 01:59:03 AM 37.8320 -119.3180 262° West 434 499 37,400 -940 Descending FlightAware ADS-B
Fri 01:59:44 AM 37.8200 -119.4210 262° West 436 502 36,700 -955 Descending FlightAware ADS-B
Fri 02:00:31 AM 37.8060 -119.5390 261° West 433 498 36,000 -857 Descending FlightAware ADS-B
Fri 02:01:08 AM 37.7950 -119.6320 262° West 432 497 35,500 -1,068 Descending FlightAware ADS-B
Fri 02:01:44 AM 37.7840 -119.7220 261° West 438 504 34,700 -1,083 Descending FlightAware ADS-B
Fri 02:02:20 AM 37.7730 -119.8140 261° West 434 499 34,200 -600 Descending FlightAware ADS-B
Fri 02:03:04 AM 37.7600 -119.9210 261° West 427 491 33,900 -553 Descending FlightAware ADS-B
Fri 02:03:36 AM 37.7500 -120.0010 261° West 423 487 33,500 -1,275 Descending FlightAware ADS-B
Fri 02:04:24 AM 37.7350 -120.1150 261° West 409 471 32,200 -1,650 Descending FlightAware ADS-B
Fri 02:04:56 AM 37.7260 -120.1910 262° West 398 458 31,300 -1,737 Descending FlightAware ADS-B
Fri 02:05:40 AM 37.7140 -120.2890 261° West 388 447 30,000 -1,755 Descending FlightAware ADS-B
Fri 02:06:42 AM 37.6980 -120.4260 262° West 372 428 28,200 -1,782 Descending FlightAware ADS-B
Fri 02:07:21 AM 37.7140 -120.5080 284° West 362 417 27,000 -1,735 Descending FlightAware ADS-B
Fri 02:08:05 AM 37.7430 -120.5870 295° West 358 412 25,800 -1,703 Descending FlightAware ADS-B
Fri 02:08:35 AM 37.7550 -120.6500 284° West 359 413 24,900 -1,700 Descending FlightAware ADS-B
Fri 02:09:05 AM 37.7430 -120.7110 256° West 362 417 24,100 -1,636 Descending FlightAware ADS-B
Fri 02:09:41 AM 37.7130 -120.7750 239° Southwest 358 412 23,100 -1,579 Descending FlightAware ADS-B
Fri 02:10:21 AM 37.6790 -120.8470 239° Southwest 353 406 22,100 -1,680 Descending FlightAware ADS-B
Fri 02:10:56 AM 37.6500 -120.9090 239° Southwest 352 405 21,000 -1,688 Descending FlightAware ADS-B
Fri 02:11:57 AM 37.6190 -121.0240 251° West 340 391 19,400 -1,604 Descending FlightAware ADS-B
Fri 02:12:37 AM 37.6110 -121.1010 263° West 336 387 18,300 -1,859 Descending FlightAware ADS-B
Fri 02:13:08 AM 37.6050 -121.1560 262° West 341 392 17,200 -1,818 Descending FlightAware ADS-B
Fri 02:13:43 AM 37.5970 -121.2310 262° West 336 387 16,300 -1,600 Descending FlightAware ADS-B
Fri 02:14:23 AM 37.5880 -121.3090 262° West 326 375 15,200 -1,690 Descending FlightAware ADS-B
Fri 02:14:54 AM 37.5807 -121.3680 261° West 323 372 14,300 -1,714 Descending FlightAware ADS-B
Fri 02:15:26 AM 37.5739 -121.4270 262° West 319 367 13,400 -1,569 Descending FlightAware ADS-B
Fri 02:15:59 AM 37.5670 -121.4860 262° West 314 361 12,600 -1,592 Descending FlightAware ADS-B
Fri 02:16:15 AM 37.5637 -121.5150 262° West 307 353 12,100 -1,548 Descending FlightAware ADS-B
Fri 02:16:30 AM 37.5582 -121.5420 256° West 307 353 11,800 -1,043 Descending FlightAware ADS-B
Fri 02:17:01 AM 37.5468 -121.5930 254° West 292 336 11,300 -1,180 Descending FlightAware ADS-B
Fri 02:17:31 AM 37.5365 -121.6430 255° West 291 335 10,600 -1,180 Descending FlightAware ADS-B
Fri 02:18:02 AM 37.5267 -121.6920 256° West 279 321 10,100 -1,021 Descending FlightAware ADS-B
Fri 02:18:18 AM 37.5184 -121.7150 246° West 266 306 9,800 -947 Descending FlightAware ADS-B
Fri 02:18:21 AM 37.5159 -121.7190 232° Southwest 263 303 9,800  Level FlightAware ADS-B
Fri 02:18:28 AM 37.5098 -121.7250 218° Southwest 257 296 9,800 -462 Level FlightAware ADS-B
Fri 02:18:34 AM 37.5034 -121.7290 206° Southwest 252 290 9,700 -750 Descending FlightAware ADS-B
Fri 02:18:44 AM 37.4923 -121.7340 200° South 247 284 9,600 -462 Descending FlightAware ADS-B
Fri 02:19:00 AM 37.4755 -121.7400 196° South 239 275 9,500 -353 Descending FlightAware ADS-B
Fri 02:19:18 AM 37.4564 -121.7460 194° South 230 265 9,400 -343 Descending FlightAware ADS-B
Fri 02:19:35 AM 37.4398 -121.7520 196° South 210 242 9,300 -462 Descending FlightAware ADS-B
Fri 02:19:44 AM 37.4324 -121.7550 198° South 207 238 9,200 -857 Descending FlightAware ADS-B
Fri 02:19:49 AM 37.4284 -121.7590 218° Southwest 204 235 9,100 -923 Descending FlightAware ADS-B
Fri 02:19:57 AM 37.4234 -121.7660 228° Southwest 203 234 9,000 -750 Descending FlightAware ADS-B
Fri 02:20:37 AM 37.4282 -121.8100 278° West 210 242 8,500 -682 Descending FlightAware ADS-B
Fri 02:20:41 AM 37.4311 -121.8130 321° Northwest 212 244 8,500  Level FlightAware ADS-B
Fri 02:20:53 AM 37.4399 -121.8230 318° Northwest 211 243 8,500 -214 Level FlightAware ADS-B
Fri 02:21:09 AM 37.4519 -121.8350 322° Northwest 209 241 8,400 -774 Descending FlightAware ADS-B
Fri 02:21:24 AM 37.4633 -121.8470 320° Northwest 207 238 8,100 -909 Descending FlightAware ADS-B
Fri 02:21:42 AM 37.4767 -121.8600 322° Northwest 208 239 7,900 -581 Descending FlightAware ADS-B
Fri 02:21:55 AM 37.4860 -121.8720 314° West 207 238 7,800 -333 Descending FlightAware ADS-B
Fri 02:22:00 AM 37.4885 -121.8770 302° West 204 235 7,800 -667 Level FlightAware ADS-B
Fri 02:22:04 AM 37.4897 -121.8800 297° West 202 232 7,700 -857 Descending FlightAware ADS-B
Fri 02:22:07 AM 37.4907 -121.8840 287° West 201 231 7,700 -750 Level FlightAware ADS-B
Fri 02:22:12 AM 37.4915 -121.8900 280° West 199 229 7,600 -1,091 Descending FlightAware ADS-B
Fri 02:22:18 AM 37.4919 -121.8970 274° West 198 228 7,500 -1,143 Descending FlightAware ADS-B
Fri 02:22:33 AM 37.4926 -121.9140 273° West 200 230 7,200 -1,200 Descending FlightAware ADS-B
Fri 02:22:48 AM 37.4929 -121.9320 271° West 200 230 6,900 -1,355 Descending FlightAware ADS-B
Fri 02:23:04 AM 37.4931 -121.9510 271° West 219 252 6,500 -1,500 Descending FlightAware ADS-B
Fri 02:23:20 AM 37.4934 -121.9710 271° West 223 257 6,100 -1,714 Descending FlightAware ADS-B
Fri 02:23:25 AM 37.4938 -121.9770 275° West 223 257 5,900 -1,500 Descending FlightAware ADS-B
Fri 02:23:28 AM 37.4942 -121.9810 277° West 222 255 5,900 -857 Level FlightAware ADS-B
Fri 02:23:32 AM 37.4951 -121.9870 281° West 222 255 5,800 -1,500 Descending FlightAware ADS-B
Fri 02:23:36 AM 37.4960 -121.9910 286° West 220 253 5,700 -1,500 Descending FlightAware ADS-B
Fri 02:23:40 AM 37.4974 -121.9970 286° West 218 251 5,600 -1,143 Descending FlightAware ADS-B
Fri 02:23:57 AM 37.5033 -122.0160 291° West 202 232 5,300 -909 Descending FlightAware ADS-B
Fri 02:24:13 AM 37.5087 -122.0330 292° West 186 214 5,100 -750 Descending FlightAware ADS-B
Fri 02:24:29 AM 37.5137 -122.0480 293° West 180 207 4,900 -968 Descending FlightAware ADS-B
Fri 02:24:44 AM 37.5187 -122.0620 294° West 178 205 4,600 -1,000 Descending FlightAware ADS-B
Fri 02:24:59 AM 37.5235 -122.0770 292° West 177 204 4,400 -1,000 Descending FlightAware ADS-B
Fri 02:25:14 AM 37.5282 -122.0910 293° West 175 201 4,100 -1,125 Descending FlightAware ADS-B
Fri 02:25:31 AM 37.5334 -122.1070 292° West 173 199 3,800 -909 Descending FlightAware ADS-B
Fri 02:25:47 AM 37.5382 -122.1220 292° West 171 197 3,600 -1,000 Descending FlightAware ADS-B
Fri 02:26:07 AM 37.5441 -122.1400 292° West 170 196 3,200 -1,200 Descending FlightAware ADS-B
Fri 02:26:22 AM 37.5485 -122.1540 292° West 171 197 2,900 -968 Descending FlightAware ADS-B
Fri 02:26:38 AM 37.5531 -122.1680 293° West 170 196 2,700 -857 Descending FlightAware ADS-B
Fri 02:26:50 AM 37.5569 -122.1800 292° West 170 196 2,500 -1,071 Descending FlightAware ADS-B
Fri 02:27:06 AM 37.5614 -122.1940 292° West 166 191 2,200 -889 Descending FlightAware ADS-B
Fri 02:27:17 AM 37.5648 -122.2040 293° West 165 190 2,100 -667 Descending FlightAware ADS-B
Fri 02:27:24 AM 37.5668 -122.2100 293° West 165 190 2,000 -783 Descending FlightAware ADS-B
Fri 02:27:40 AM 37.5712 -122.2240 292° West 165 190 1,800 -720 Descending FlightAware ADS-B
Fri 02:27:49 AM 37.5738 -122.2330 290° West 163 188 1,700 -375 Descending FlightAware ADS-B
Fri 02:27:56 AM 37.5756 -122.2390 291° West 162 186 1,700 -500 Level FlightAware ADS-B
Fri 02:28:01 AM 37.5766 -122.2430 288° West 162 186 1,600 -571 Descending FlightAware ADS-B
Fri 02:28:17 AM 37.5794 -122.2570 284° West 158 182 1,500 -581 Descending FlightAware ADS-B
Fri 02:28:32 AM 37.5820 -122.2700 284° West 154 177 1,300 -750 Descending FlightAware ADS-B
Fri 02:28:41 AM 37.5837 -122.2790 283° West 149 171 1,200 -750 Descending FlightAware ADS-B
Fri 02:28:48 AM 37.5847 -122.2840 284° West 142 163 1,100 -462 Descending FlightAware ADS-B
Fri 02:28:54 AM 37.5859 -122.2890 287° West 137 158 1,100 -545 Level FlightAware ADS-B
Fri 02:28:59 AM 37.5869 -122.2930 288° West 134 154 1,000 -720 Descending FlightAware ADS-B
Fri 02:29:19 AM 37.5920 -122.3060 296° West 133 153 800 -667 Descending FlightAware ADS-B
Fri 02:29:35 AM 37.5967 -122.3180 296° West 131 151 600 -621 Descending FlightAware ADS-B
Fri 02:29:48 AM 37.6003 -122.3260 300° West 132 152 500 -621 Descending FlightAware ADS-B
Fri 02:30:04 AM 37.6048 -122.3370 297° West 135 155 300 -889 Descending FlightAware ADS-B
Fri 02:30:15 AM 37.6082 -122.3450 298° West 135 155 100 -1,091 Descending FlightAware ADS-B

Login

Don't have an account? Register now (free) for customized features, flight alerts, and more!